Dayton, OH

10:04 PM EDT on July 29, 2016 (GMT -0400)
Oregon Historic District | | Change Station

Elev 745 ft 39.75 °N, 84.18 °W | Updated 13 seconds ago

Mostly Cloudy
Mostly Cloudy
72.0 °F
Feels Like 72.0 °F
N
0.0
Wind Variable Wind from SE
Gusts 0.0 mph

Today
High -- | Low -- °F
--% Chance of Precip.
Yesterday
High -- | Low -- °F
Precip. -- in
Pressure 29.92 in
Visibility 9.0 miles
Clouds Mostly Cloudy 10000 ft
Mostly Cloudy 25000 ft
Dew Point 71 °F
Humidity 96%
Rainfall 1.09 in
Snow Depth Not available.
6:33 AM 8:52 PM
Waning Crescent, 17% visible
METAR KFFO 300158Z 01003KT 9SM BKN100 BKN250 22/22 A2993 RMK AO2A SLP131 T02210221
Pressure 29.92 in
Visibility 9.0 miles
Clouds Mostly Cloudy 10000 ft
Mostly Cloudy 25000 ft
Dew Point 71 °F
Humidity 96%
Rainfall 1.09 in
Snow Depth Not available.
6:33 AM 8:52 PM
Waning Crescent, 17% visible
METAR KFFO 300158Z 01003KT 9SM BKN100 BKN250 22/22 A2993 RMK AO2A SLP131 T02210221

10-Day Weather Forecast

Almanac

Astronomy

Jul. 29, 2016 Rise Set
Actual Time
Civil Twilight
Nautical Twilight
Astronomical Twilight
Moon
Length of Visible Light
Length of Day
Tomorrow will be .
, % of the Moon is Illuminated

Today's Extremes

State Highs State Lows

Community

WunderPhotos

Upload Photos

1,928,481 photos uploaded!

WunderBlog® & News

Nearby

Air Quality

  Air Quality AQ Index Pollutant
Not available.

Snow Depth

Station Depth Elevation

Earthquake Activity

City Distance Mag. Time & Date
Minimum magnitude displayed is 2.5.

Coastal Water Temperatures

Place Temperature

Stations

Nearby Weather Stations

Station Location Temp. Windchill Dew Point Humidity Wind Precip. Elev Updated Type
                   

Watches & Warnings

There are currently no watches in effect.